sensor_id;sensor_type;location;lat;lon;timestamp;P1;durP1;ratioP1;P2;durP2;ratioP2
5483;SDS011;2764;48.794;8.326;2023-11-21T00:00:19;4.33;;;1.50;;
5483;SDS011;2764;48.794;8.326;2023-11-21T00:01:23;3.45;;;1.30;;
5483;SDS011;2764;48.794;8.326;2023-11-21T00:02:26;5.97;;;1.20;;
5483;SDS011;2764;48.794;8.326;2023-11-21T00:03:32;2.40;;;1.00;;
5483;SDS011;2764;48.794;8.326;2023-11-21T00:04:35;3.50;;;1.30;;
5483;SDS011;2764;48.794;8.326;2023-11-21T00:05:43;2.75;;;0.90;;
5483;SDS011;2764;48.794;8.326;2023-11-21T00:06:50;3.22;;;1.05;;
5483;SDS011;2764;48.794;8.326;2023-11-21T00:07:57;3.15;;;1.42;;
5483;SDS011;2764;48.794;8.326;2023-11-21T00:08:59;3.80;;;1.20;;
5483;SDS011;2764;48.794;8.326;2023-11-21T00:10:02;2.00;;;1.13;;
5483;SDS011;2764;48.794;8.326;2023-11-21T00:11:08;8.32;;;1.65;;
5483;SDS011;2764;48.794;8.326;2023-11-21T00:12:10;5.80;;;1.20;;
5483;SDS011;2764;48.794;8.326;2023-11-21T00:13:12;1.48;;;0.90;;
5483;SDS011;2764;48.794;8.326;2023-11-21T00:14:18;1.63;;;0.90;;
5483;SDS011;2764;48.794;8.326;2023-11-21T00:15:23;6.35;;;1.77;;
5483;SDS011;2764;48.794;8.326;2023-11-21T00:16:25;1.70;;;0.90;;
5483;SDS011;2764;48.794;8.326;2023-11-21T00:17:27;0.73;;;0.73;;
5483;SDS011;2764;48.794;8.326;2023-11-21T00:18:30;6.10;;;1.33;;
5483;SDS011;2764;48.794;8.326;2023-11-21T00:19:32;2.42;;;1.10;;
5483;SDS011;2764;48.794;8.326;2023-11-21T00:20:35;10.20;;;1.00;;
5483;SDS011;2764;48.794;8.326;2023-11-21T00:21:37;7.28;;;1.27;;
5483;SDS011;2764;48.794;8.326;2023-11-21T00:22:39;3.63;;;1.00;;
5483;SDS011;2764;48.794;8.326;2023-11-21T00:23:43;3.45;;;0.90;;
5483;SDS011;2764;48.794;8.326;2023-11-21T00:24:47;4.63;;;0.93;;
5483;SDS011;2764;48.794;8.326;2023-11-21T00:25:49;8.57;;;1.52;;
5483;SDS011;2764;48.794;8.326;2023-11-21T00:26:51;5.55;;;1.50;;
5483;SDS011;2764;48.794;8.326;2023-11-21T00:27:54;4.50;;;1.02;;
5483;SDS011;2764;48.794;8.326;2023-11-21T00:28:56;6.38;;;1.05;;
5483;SDS011;2764;48.794;8.326;2023-11-21T00:29:58;1.90;;;0.80;;
5483;SDS011;2764;48.794;8.326;2023-11-21T00:31:00;3.13;;;1.05;;
5483;SDS011;2764;48.794;8.326;2023-11-21T00:32:02;3.35;;;0.90;;
5483;SDS011;2764;48.794;8.326;2023-11-21T00:33:04;1.67;;;0.63;;
5483;SDS011;2764;48.794;8.326;2023-11-21T00:34:06;5.13;;;0.93;;
5483;SDS011;2764;48.794;8.326;2023-11-21T00:35:10;3.42;;;0.80;;
5483;SDS011;2764;48.794;8.326;2023-11-21T00:36:14;6.78;;;1.27;;
5483;SDS011;2764;48.794;8.326;2023-11-21T00:37:16;3.65;;;0.80;;
5483;SDS011;2764;48.794;8.326;2023-11-21T00:38:18;8.32;;;1.02;;
5483;SDS011;2764;48.794;8.326;2023-11-21T00:39:21;3.35;;;0.77;;
5483;SDS011;2764;48.794;8.326;2023-11-21T00:40:24;2.83;;;1.10;;
5483;SDS011;2764;48.794;8.326;2023-11-21T00:41:30;3.58;;;0.80;;
5483;SDS011;2764;48.794;8.326;2023-11-21T00:42:32;1.40;;;1.00;;
5483;SDS011;2764;48.794;8.326;2023-11-21T00:43:36;4.65;;;1.02;;
5483;SDS011;2764;48.794;8.326;2023-11-21T00:44:39;2.50;;;0.60;;
5483;SDS011;2764;48.794;8.326;2023-11-21T00:45:41;2.28;;;0.70;;
5483;SDS011;2764;48.794;8.326;2023-11-21T00:46:44;3.78;;;0.90;;
5483;SDS011;2764;48.794;8.326;2023-11-21T00:47:46;10.07;;;1.00;;
5483;SDS011;2764;48.794;8.326;2023-11-21T00:48:47;4.18;;;1.67;;
5483;SDS011;2764;48.794;8.326;2023-11-21T00:49:49;3.78;;;1.15;;
5483;SDS011;2764;48.794;8.326;2023-11-21T00:50:52;2.45;;;0.95;;
5483;SDS011;2764;48.794;8.326;2023-11-21T00:51:54;4.38;;;0.95;;
5483;SDS011;2764;48.794;8.326;2023-11-21T00:52:58;2.25;;;0.85;;
5483;SDS011;2764;48.794;8.326;2023-11-21T00:54:00;1.15;;;0.70;;
5483;SDS011;2764;48.794;8.326;2023-11-21T00:55:03;2.88;;;0.88;;
5483;SDS011;2764;48.794;8.326;2023-11-21T00:56:06;2.17;;;0.80;;
5483;SDS011;2764;48.794;8.326;2023-11-21T00:57:10;1.02;;;0.70;;
5483;SDS011;2764;48.794;8.326;2023-11-21T00:58:13;2.35;;;0.77;;
5483;SDS011;2764;48.794;8.326;2023-11-21T00:59:16;0.73;;;0.70;;
5483;SDS011;2764;48.794;8.326;2023-11-21T01:00:18;4.00;;;0.80;;
5483;SDS011;2764;48.794;8.326;2023-11-21T01:01:20;1.13;;;1.02;;
5483;SDS011;2764;48.794;8.326;2023-11-21T01:02:24;1.65;;;0.70;;
5483;SDS011;2764;48.794;8.326;2023-11-21T01:03:27;1.77;;;0.80;;
5483;SDS011;2764;48.794;8.326;2023-11-21T01:04:29;2.00;;;0.90;;
5483;SDS011;2764;48.794;8.326;2023-11-21T01:05:32;3.08;;;0.98;;
5483;SDS011;2764;48.794;8.326;2023-11-21T01:06:33;1.65;;;1.10;;
5483;SDS011;2764;48.794;8.326;2023-11-21T01:07:37;2.22;;;0.80;;
5483;SDS011;2764;48.794;8.326;2023-11-21T01:08:42;3.28;;;0.90;;
5483;SDS011;2764;48.794;8.326;2023-11-21T01:09:45;2.13;;;0.90;;
5483;SDS011;2764;48.794;8.326;2023-11-21T01:10:48;3.00;;;0.95;;
5483;SDS011;2764;48.794;8.326;2023-11-21T01:11:51;3.30;;;1.02;;
5483;SDS011;2764;48.794;8.326;2023-11-21T01:12:53;4.38;;;1.35;;
5483;SDS011;2764;48.794;8.326;2023-11-21T01:13:55;3.45;;;1.40;;
5483;SDS011;2764;48.794;8.326;2023-11-21T01:14:57;6.32;;;1.52;;
5483;SDS011;2764;48.794;8.326;2023-11-21T01:16:01;4.53;;;0.82;;
5483;SDS011;2764;48.794;8.326;2023-11-21T01:17:05;6.68;;;0.90;;
5483;SDS011;2764;48.794;8.326;2023-11-21T01:18:07;1.23;;;0.90;;
5483;SDS011;2764;48.794;8.326;2023-11-21T01:19:13;2.97;;;1.00;;
5483;SDS011;2764;48.794;8.326;2023-11-21T01:20:15;1.75;;;0.75;;
5483;SDS011;2764;48.794;8.326;2023-11-21T01:21:18;1.42;;;1.00;;
5483;SDS011;2764;48.794;8.326;2023-11-21T01:22:21;2.08;;;0.70;;
5483;SDS011;2764;48.794;8.326;2023-11-21T01:23:27;4.35;;;1.05;;
5483;SDS011;2764;48.794;8.326;2023-11-21T01:24:29;4.10;;;0.95;;
5483;SDS011;2764;48.794;8.326;2023-11-21T01:25:31;2.55;;;0.93;;
5483;SDS011;2764;48.794;8.326;2023-11-21T01:26:33;1.70;;;0.80;;
5483;SDS011;2764;48.794;8.326;2023-11-21T01:27:35;1.10;;;0.70;;
5483;SDS011;2764;48.794;8.326;2023-11-21T01:28:37;2.13;;;0.90;;
5483;SDS011;2764;48.794;8.326;2023-11-21T01:29:39;4.72;;;1.30;;
5483;SDS011;2764;48.794;8.326;2023-11-21T01:30:48;2.63;;;1.35;;
5483;SDS011;2764;48.794;8.326;2023-11-21T01:31:53;6.07;;;1.52;;
5483;SDS011;2764;48.794;8.326;2023-11-21T01:32:55;2.78;;;0.88;;
5483;SDS011;2764;48.794;8.326;2023-11-21T01:33:59;2.90;;;1.02;;
5483;SDS011;2764;48.794;8.326;2023-11-21T01:35:03;2.88;;;0.80;;
5483;SDS011;2764;48.794;8.326;2023-11-21T01:36:07;1.08;;;0.70;;
5483;SDS011;2764;48.794;8.326;2023-11-21T01:37:09;1.75;;;0.70;;
5483;SDS011;2764;48.794;8.326;2023-11-21T01:38:13;1.83;;;0.85;;
5483;SDS011;2764;48.794;8.326;2023-11-21T01:39:20;2.30;;;0.90;;
5483;SDS011;2764;48.794;8.326;2023-11-21T01:40:25;4.78;;;1.08;;
5483;SDS011;2764;48.794;8.326;2023-11-21T01:41:30;2.08;;;1.00;;
5483;SDS011;2764;48.794;8.326;2023-11-21T01:42:35;7.38;;;0.95;;
5483;SDS011;2764;48.794;8.326;2023-11-21T01:43:38;1.75;;;1.13;;
5483;SDS011;2764;48.794;8.326;2023-11-21T01:44:42;3.42;;;0.90;;
5483;SDS011;2764;48.794;8.326;2023-11-21T01:45:46;0.70;;;0.65;;
5483;SDS011;2764;48.794;8.326;2023-11-21T01:46:50;0.90;;;0.80;;
5483;SDS011;2764;48.794;8.326;2023-11-21T01:47:53;6.78;;;1.10;;
5483;SDS011;2764;48.794;8.326;2023-11-21T01:48:59;5.20;;;1.10;;
5483;SDS011;2764;48.794;8.326;2023-11-21T01:50:03;9.65;;;1.10;;
5483;SDS011;2764;48.794;8.326;2023-11-21T01:51:08;3.55;;;1.10;;
5483;SDS011;2764;48.794;8.326;2023-11-21T01:52:10;4.10;;;0.98;;
5483;SDS011;2764;48.794;8.326;2023-11-21T01:53:13;3.28;;;1.35;;
5483;SDS011;2764;48.794;8.326;2023-11-21T01:54:17;3.13;;;1.27;;
5483;SDS011;2764;48.794;8.326;2023-11-21T01:55:21;6.53;;;0.82;;
5483;SDS011;2764;48.794;8.326;2023-11-21T01:56:29;2.85;;;0.90;;
5483;SDS011;2764;48.794;8.326;2023-11-21T01:57:32;4.30;;;1.02;;
5483;SDS011;2764;48.794;8.326;2023-11-21T01:58:38;3.08;;;1.20;;
5483;SDS011;2764;48.794;8.326;2023-11-21T01:59:41;1.60;;;0.95;;
5483;SDS011;2764;48.794;8.326;2023-11-21T02:00:45;1.25;;;0.90;;
5483;SDS011;2764;48.794;8.326;2023-11-21T02:01:47;5.43;;;0.80;;
5483;SDS011;2764;48.794;8.326;2023-11-21T02:02:52;2.40;;;0.90;;
5483;SDS011;2764;48.794;8.326;2023-11-21T02:03:55;2.20;;;0.90;;
5483;SDS011;2764;48.794;8.326;2023-11-21T02:04:57;1.85;;;0.93;;
5483;SDS011;2764;48.794;8.326;2023-11-21T02:05:59;5.38;;;1.10;;
5483;SDS011;2764;48.794;8.326;2023-11-21T02:07:02;4.68;;;0.68;;
5483;SDS011;2764;48.794;8.326;2023-11-21T02:08:08;1.85;;;0.93;;
5483;SDS011;2764;48.794;8.326;2023-11-21T02:09:11;0.80;;;0.80;;
5483;SDS011;2764;48.794;8.326;2023-11-21T02:10:16;0.88;;;0.88;;
5483;SDS011;2764;48.794;8.326;2023-11-21T02:11:19;2.28;;;0.70;;
5483;SDS011;2764;48.794;8.326;2023-11-21T02:12:21;3.40;;;1.05;;
5483;SDS011;2764;48.794;8.326;2023-11-21T02:13:23;9.85;;;0.93;;
5483;SDS011;2764;48.794;8.326;2023-11-21T02:14:25;1.05;;;0.95;;
5483;SDS011;2764;48.794;8.326;2023-11-21T02:15:29;1.67;;;1.02;;
5483;SDS011;2764;48.794;8.326;2023-11-21T02:16:33;4.30;;;0.88;;
5483;SDS011;2764;48.794;8.326;2023-11-21T02:17:36;4.22;;;0.95;;
5483;SDS011;2764;48.794;8.326;2023-11-21T02:18:39;1.20;;;0.80;;
5483;SDS011;2764;48.794;8.326;2023-11-21T02:19:43;2.75;;;0.93;;
5483;SDS011;2764;48.794;8.326;2023-11-21T02:20:51;4.57;;;0.93;;
5483;SDS011;2764;48.794;8.326;2023-11-21T02:21:53;1.77;;;0.95;;
5483;SDS011;2764;48.794;8.326;2023-11-21T02:22:59;0.50;;;0.50;;
5483;SDS011;2764;48.794;8.326;2023-11-21T02:24:04;1.58;;;0.88;;
5483;SDS011;2764;48.794;8.326;2023-11-21T02:25:08;1.17;;;0.70;;
5483;SDS011;2764;48.794;8.326;2023-11-21T02:26:15;1.42;;;0.70;;
5483;SDS011;2764;48.794;8.326;2023-11-21T02:27:18;4.43;;;0.98;;
5483;SDS011;2764;48.794;8.326;2023-11-21T02:28:23;1.25;;;1.15;;
5483;SDS011;2764;48.794;8.326;2023-11-21T02:29:32;2.70;;;1.08;;
5483;SDS011;2764;48.794;8.326;2023-11-21T02:30:35;2.30;;;0.90;;
5483;SDS011;2764;48.794;8.326;2023-11-21T02:31:39;1.40;;;0.70;;
5483;SDS011;2764;48.794;8.326;2023-11-21T02:32:49;2.15;;;0.70;;
5483;SDS011;2764;48.794;8.326;2023-11-21T02:33:54;2.60;;;0.90;;
5483;SDS011;2764;48.794;8.326;2023-11-21T02:34:57;1.48;;;1.00;;
5483;SDS011;2764;48.794;8.326;2023-11-21T02:36:02;3.63;;;0.90;;
5483;SDS011;2764;48.794;8.326;2023-11-21T02:37:04;3.38;;;1.00;;
5483;SDS011;2764;48.794;8.326;2023-11-21T02:38:09;0.80;;;0.60;;
5483;SDS011;2764;48.794;8.326;2023-11-21T02:39:10;5.40;;;1.02;;
5483;SDS011;2764;48.794;8.326;2023-11-21T02:40:14;1.15;;;0.95;;
5483;SDS011;2764;48.794;8.326;2023-11-21T02:41:19;2.53;;;1.17;;
5483;SDS011;2764;48.794;8.326;2023-11-21T02:42:21;3.95;;;0.77;;
5483;SDS011;2764;48.794;8.326;2023-11-21T02:43:23;4.10;;;0.85;;
5483;SDS011;2764;48.794;8.326;2023-11-21T02:44:25;3.33;;;0.95;;
5483;SDS011;2764;48.794;8.326;2023-11-21T02:45:28;4.18;;;0.90;;
5483;SDS011;2764;48.794;8.326;2023-11-21T02:46:30;3.30;;;0.80;;
5483;SDS011;2764;48.794;8.326;2023-11-21T02:47:36;5.53;;;0.80;;
5483;SDS011;2764;48.794;8.326;2023-11-21T02:48:37;2.78;;;0.80;;
5483;SDS011;2764;48.794;8.326;2023-11-21T02:49:40;3.90;;;0.98;;
5483;SDS011;2764;48.794;8.326;2023-11-21T02:50:42;6.93;;;1.00;;
5483;SDS011;2764;48.794;8.326;2023-11-21T02:51:44;2.08;;;0.80;;
5483;SDS011;2764;48.794;8.326;2023-11-21T02:52:50;1.85;;;1.30;;
5483;SDS011;2764;48.794;8.326;2023-11-21T02:54:00;2.75;;;1.25;;
5483;SDS011;2764;48.794;8.326;2023-11-21T02:55:05;3.67;;;1.00;;
5483;SDS011;2764;48.794;8.326;2023-11-21T02:56:10;1.92;;;1.17;;
5483;SDS011;2764;48.794;8.326;2023-11-21T02:57:12;2.67;;;1.02;;
5483;SDS011;2764;48.794;8.326;2023-11-21T02:58:16;7.05;;;0.90;;
5483;SDS011;2764;48.794;8.326;2023-11-21T02:59:19;7.80;;;1.27;;
5483;SDS011;2764;48.794;8.326;2023-11-21T03:00:21;1.05;;;0.95;;
5483;SDS011;2764;48.794;8.326;2023-11-21T03:01:26;1.42;;;1.30;;
5483;SDS011;2764;48.794;8.326;2023-11-21T03:02:31;4.55;;;1.30;;
5483;SDS011;2764;48.794;8.326;2023-11-21T03:03:33;2.40;;;1.08;;
5483;SDS011;2764;48.794;8.326;2023-11-21T03:04:36;8.38;;;1.30;;
5483;SDS011;2764;48.794;8.326;2023-11-21T03:05:40;4.93;;;1.20;;
5483;SDS011;2764;48.794;8.326;2023-11-21T03:06:42;3.25;;;1.23;;
5483;SDS011;2764;48.794;8.326;2023-11-21T03:07:44;3.55;;;0.90;;
5483;SDS011;2764;48.794;8.326;2023-11-21T03:08:47;1.95;;;1.25;;
5483;SDS011;2764;48.794;8.326;2023-11-21T03:09:49;2.42;;;0.90;;
5483;SDS011;2764;48.794;8.326;2023-11-21T03:10:55;4.20;;;1.42;;
5483;SDS011;2764;48.794;8.326;2023-11-21T03:11:58;9.68;;;1.30;;
5483;SDS011;2764;48.794;8.326;2023-11-21T03:13:01;5.45;;;0.82;;
5483;SDS011;2764;48.794;8.326;2023-11-21T03:14:03;1.70;;;0.98;;
5483;SDS011;2764;48.794;8.326;2023-11-21T03:15:09;8.02;;;1.50;;
5483;SDS011;2764;48.794;8.326;2023-11-21T03:16:16;1.50;;;1.00;;
5483;SDS011;2764;48.794;8.326;2023-11-21T03:17:20;1.08;;;0.80;;
5483;SDS011;2764;48.794;8.326;2023-11-21T03:18:22;3.40;;;1.30;;
5483;SDS011;2764;48.794;8.326;2023-11-21T03:19:28;2.20;;;0.98;;
5483;SDS011;2764;48.794;8.326;2023-11-21T03:20:30;2.15;;;0.80;;
5483;SDS011;2764;48.794;8.326;2023-11-21T03:21:33;0.82;;;0.82;;
5483;SDS011;2764;48.794;8.326;2023-11-21T03:22:36;2.78;;;0.85;;
5483;SDS011;2764;48.794;8.326;2023-11-21T03:23:39;0.88;;;0.88;;
5483;SDS011;2764;48.794;8.326;2023-11-21T03:24:41;2.13;;;1.20;;
5483;SDS011;2764;48.794;8.326;2023-11-21T03:25:45;5.85;;;1.25;;
5483;SDS011;2764;48.794;8.326;2023-11-21T03:26:48;3.70;;;1.10;;
5483;SDS011;2764;48.794;8.326;2023-11-21T03:27:53;2.65;;;1.27;;
5483;SDS011;2764;48.794;8.326;2023-11-21T03:28:55;1.30;;;1.08;;
5483;SDS011;2764;48.794;8.326;2023-11-21T03:29:58;2.47;;;1.25;;
5483;SDS011;2764;48.794;8.326;2023-11-21T03:31:00;5.45;;;1.08;;
5483;SDS011;2764;48.794;8.326;2023-11-21T03:32:01;2.72;;;1.15;;
5483;SDS011;2764;48.794;8.326;2023-11-21T03:33:03;0.90;;;0.90;;
5483;SDS011;2764;48.794;8.326;2023-11-21T03:34:09;1.15;;;1.00;;
5483;SDS011;2764;48.794;8.326;2023-11-21T03:35:13;4.85;;;1.05;;
5483;SDS011;2764;48.794;8.326;2023-11-21T03:36:15;2.65;;;1.10;;
5483;SDS011;2764;48.794;8.326;2023-11-21T03:37:17;2.38;;;1.23;;
5483;SDS011;2764;48.794;8.326;2023-11-21T03:38:22;1.63;;;0.85;;
5483;SDS011;2764;48.794;8.326;2023-11-21T03:39:24;3.65;;;1.25;;
5483;SDS011;2764;48.794;8.326;2023-11-21T03:40:27;4.00;;;0.90;;
5483;SDS011;2764;48.794;8.326;2023-11-21T03:41:30;2.97;;;1.10;;
5483;SDS011;2764;48.794;8.326;2023-11-21T03:42:32;2.22;;;1.08;;
5483;SDS011;2764;48.794;8.326;2023-11-21T03:43:34;1.42;;;0.80;;
5483;SDS011;2764;48.794;8.326;2023-11-21T03:44:39;4.03;;;0.80;;
5483;SDS011;2764;48.794;8.326;2023-11-21T03:45:41;9.32;;;1.40;;
5483;SDS011;2764;48.794;8.326;2023-11-21T03:46:43;2.00;;;1.30;;
5483;SDS011;2764;48.794;8.326;2023-11-21T03:47:45;10.05;;;1.40;;
5483;SDS011;2764;48.794;8.326;2023-11-21T03:48:48;2.33;;;1.08;;
5483;SDS011;2764;48.794;8.326;2023-11-21T03:49:51;10.73;;;1.67;;
5483;SDS011;2764;48.794;8.326;2023-11-21T03:50:54;3.00;;;1.20;;
5483;SDS011;2764;48.794;8.326;2023-11-21T03:51:56;2.47;;;1.20;;
5483;SDS011;2764;48.794;8.326;2023-11-21T03:52:58;8.48;;;1.20;;
5483;SDS011;2764;48.794;8.326;2023-11-21T03:54:00;5.68;;;1.60;;
5483;SDS011;2764;48.794;8.326;2023-11-21T03:55:03;4.90;;;1.45;;
5483;SDS011;2764;48.794;8.326;2023-11-21T03:56:06;3.30;;;2.00;;
5483;SDS011;2764;48.794;8.326;2023-11-21T03:57:08;3.65;;;1.75;;
5483;SDS011;2764;48.794;8.326;2023-11-21T03:58:12;4.20;;;1.90;;
5483;SDS011;2764;48.794;8.326;2023-11-21T03:59:18;2.70;;;1.40;;
5483;SDS011;2764;48.794;8.326;2023-11-21T04:00:21;3.28;;;1.80;;
5483;SDS011;2764;48.794;8.326;2023-11-21T04:01:26;4.65;;;1.75;;
5483;SDS011;2764;48.794;8.326;2023-11-21T04:02:28;9.43;;;2.05;;
5483;SDS011;2764;48.794;8.326;2023-11-21T04:03:31;3.05;;;2.03;;
5483;SDS011;2764;48.794;8.326;2023-11-21T04:04:35;2.10;;;1.50;;
5483;SDS011;2764;48.794;8.326;2023-11-21T04:05:38;5.18;;;1.85;;
5483;SDS011;2764;48.794;8.326;2023-11-21T04:06:41;2.35;;;2.15;;
5483;SDS011;2764;48.794;8.326;2023-11-21T04:07:48;5.28;;;2.42;;
5483;SDS011;2764;48.794;8.326;2023-11-21T04:08:56;8.02;;;2.40;;
5483;SDS011;2764;48.794;8.326;2023-11-21T04:09:59;4.28;;;2.28;;
5483;SDS011;2764;48.794;8.326;2023-11-21T04:11:01;9.50;;;2.60;;
5483;SDS011;2764;48.794;8.326;2023-11-21T04:12:04;6.68;;;2.90;;
5483;SDS011;2764;48.794;8.326;2023-11-21T04:13:08;2.55;;;2.35;;
5483;SDS011;2764;48.794;8.326;2023-11-21T04:14:10;5.28;;;2.25;;
5483;SDS011;2764;48.794;8.326;2023-11-21T04:15:14;2.97;;;2.35;;
5483;SDS011;2764;48.794;8.326;2023-11-21T04:16:21;4.47;;;2.90;;
5483;SDS011;2764;48.794;8.326;2023-11-21T04:17:26;3.15;;;2.60;;
5483;SDS011;2764;48.794;8.326;2023-11-21T04:18:28;5.75;;;3.13;;
5483;SDS011;2764;48.794;8.326;2023-11-21T04:19:33;11.23;;;2.97;;
5483;SDS011;2764;48.794;8.326;2023-11-21T04:20:35;7.88;;;2.60;;
5483;SDS011;2764;48.794;8.326;2023-11-21T04:21:37;4.03;;;3.10;;
5483;SDS011;2764;48.794;8.326;2023-11-21T04:22:41;10.00;;;2.80;;
5483;SDS011;2764;48.794;8.326;2023-11-21T04:23:47;4.70;;;2.70;;
5483;SDS011;2764;48.794;8.326;2023-11-21T04:24:49;3.35;;;2.55;;
5483;SDS011;2764;48.794;8.326;2023-11-21T04:25:52;3.72;;;2.63;;
5483;SDS011;2764;48.794;8.326;2023-11-21T04:26:58;4.05;;;2.80;;
5483;SDS011;2764;48.794;8.326;2023-11-21T04:28:03;8.40;;;2.42;;
5483;SDS011;2764;48.794;8.326;2023-11-21T04:29:07;8.68;;;3.22;;
5483;SDS011;2764;48.794;8.326;2023-11-21T04:30:11;3.85;;;2.10;;
5483;SDS011;2764;48.794;8.326;2023-11-21T04:31:14;3.10;;;2.38;;
5483;SDS011;2764;48.794;8.326;2023-11-21T04:32:19;5.57;;;3.10;;
5483;SDS011;2764;48.794;8.326;2023-11-21T04:33:21;6.75;;;2.45;;
5483;SDS011;2764;48.794;8.326;2023-11-21T04:34:24;11.10;;;2.85;;
5483;SDS011;2764;48.794;8.326;2023-11-21T04:35:26;2.22;;;2.13;;
5483;SDS011;2764;48.794;8.326;2023-11-21T04:36:30;5.15;;;2.60;;
5483;SDS011;2764;48.794;8.326;2023-11-21T04:37:36;5.10;;;2.80;;
5483;SDS011;2764;48.794;8.326;2023-11-21T04:38:41;3.13;;;2.50;;
5483;SDS011;2764;48.794;8.326;2023-11-21T04:39:45;5.78;;;2.20;;
5483;SDS011;2764;48.794;8.326;2023-11-21T04:40:48;4.10;;;2.20;;
5483;SDS011;2764;48.794;8.326;2023-11-21T04:41:50;4.45;;;2.05;;
5483;SDS011;2764;48.794;8.326;2023-11-21T04:42:53;3.22;;;1.80;;
5483;SDS011;2764;48.794;8.326;2023-11-21T04:43:54;9.20;;;2.40;;
5483;SDS011;2764;48.794;8.326;2023-11-21T04:44:57;4.50;;;1.80;;
5483;SDS011;2764;48.794;8.326;2023-11-21T04:45:58;1.48;;;1.38;;
5483;SDS011;2764;48.794;8.326;2023-11-21T04:47:01;2.78;;;1.73;;
5483;SDS011;2764;48.794;8.326;2023-11-21T04:48:07;4.28;;;1.65;;
5483;SDS011;2764;48.794;8.326;2023-11-21T04:49:11;4.90;;;1.83;;
5483;SDS011;2764;48.794;8.326;2023-11-21T04:50:13;3.38;;;1.73;;
5483;SDS011;2764;48.794;8.326;2023-11-21T04:51:16;2.80;;;1.40;;
5483;SDS011;2764;48.794;8.326;2023-11-21T04:52:19;4.72;;;1.83;;
5483;SDS011;2764;48.794;8.326;2023-11-21T04:53:21;4.10;;;1.75;;
5483;SDS011;2764;48.794;8.326;2023-11-21T04:54:25;2.45;;;2.15;;
5483;SDS011;2764;48.794;8.326;2023-11-21T04:55:29;3.63;;;1.90;;
5483;SDS011;2764;48.794;8.326;2023-11-21T04:56:31;5.47;;;1.83;;
5483;SDS011;2764;48.794;8.326;2023-11-21T04:57:33;2.40;;;1.90;;
5483;SDS011;2764;48.794;8.326;2023-11-21T04:58:34;3.53;;;1.95;;
5483;SDS011;2764;48.794;8.326;2023-11-21T04:59:38;2.53;;;1.38;;
5483;SDS011;2764;48.794;8.326;2023-11-21T05:00:40;3.80;;;2.10;;
5483;SDS011;2764;48.794;8.326;2023-11-21T05:01:42;6.38;;;1.73;;
5483;SDS011;2764;48.794;8.326;2023-11-21T05:02:44;8.43;;;2.00;;
5483;SDS011;2764;48.794;8.326;2023-11-21T05:03:55;4.85;;;1.92;;
5483;SDS011;2764;48.794;8.326;2023-11-21T05:04:58;1.83;;;1.70;;
5483;SDS011;2764;48.794;8.326;2023-11-21T05:06:03;2.60;;;2.35;;
5483;SDS011;2764;48.794;8.326;2023-11-21T05:07:06;3.60;;;1.70;;
5483;SDS011;2764;48.794;8.326;2023-11-21T05:08:11;1.60;;;1.50;;
5483;SDS011;2764;48.794;8.326;2023-11-21T05:09:15;5.30;;;2.65;;
5483;SDS011;2764;48.794;8.326;2023-11-21T05:10:17;3.75;;;1.75;;
5483;SDS011;2764;48.794;8.326;2023-11-21T05:11:23;3.80;;;1.70;;
5483;SDS011;2764;48.794;8.326;2023-11-21T05:12:26;3.53;;;1.65;;
5483;SDS011;2764;48.794;8.326;2023-11-21T05:13:28;1.80;;;1.70;;
5483;SDS011;2764;48.794;8.326;2023-11-21T05:14:31;1.73;;;1.52;;
5483;SDS011;2764;48.794;8.326;2023-11-21T05:15:34;3.53;;;1.85;;
5483;SDS011;2764;48.794;8.326;2023-11-21T05:16:38;10.02;;;1.80;;
5483;SDS011;2764;48.794;8.326;2023-11-21T05:17:40;13.25;;;2.28;;
5483;SDS011;2764;48.794;8.326;2023-11-21T05:18:48;1.83;;;1.58;;
5483;SDS011;2764;48.794;8.326;2023-11-21T05:19:56;8.07;;;2.40;;
5483;SDS011;2764;48.794;8.326;2023-11-21T05:20:59;2.97;;;1.73;;
5483;SDS011;2764;48.794;8.326;2023-11-21T05:22:02;4.65;;;2.28;;
5483;SDS011;2764;48.794;8.326;2023-11-21T05:23:07;4.75;;;1.45;;
5483;SDS011;2764;48.794;8.326;2023-11-21T05:24:09;9.43;;;2.30;;
5483;SDS011;2764;48.794;8.326;2023-11-21T05:25:13;9.85;;;1.80;;
5483;SDS011;2764;48.794;8.326;2023-11-21T05:26:14;4.25;;;1.83;;
5483;SDS011;2764;48.794;8.326;2023-11-21T05:27:17;3.50;;;1.50;;
5483;SDS011;2764;48.794;8.326;2023-11-21T05:28:20;4.82;;;1.95;;
5483;SDS011;2764;48.794;8.326;2023-11-21T05:29:26;6.63;;;2.08;;
5483;SDS011;2764;48.794;8.326;2023-11-21T05:30:29;3.08;;;1.80;;
5483;SDS011;2764;48.794;8.326;2023-11-21T05:31:32;3.30;;;1.73;;
5483;SDS011;2764;48.794;8.326;2023-11-21T05:32:33;2.85;;;1.70;;
5483;SDS011;2764;48.794;8.326;2023-11-21T05:33:39;1.88;;;1.75;;
5483;SDS011;2764;48.794;8.326;2023-11-21T05:34:43;1.95;;;1.40;;
5483;SDS011;2764;48.794;8.326;2023-11-21T05:35:47;1.85;;;1.52;;
5483;SDS011;2764;48.794;8.326;2023-11-21T05:36:58;1.77;;;1.20;;
5483;SDS011;2764;48.794;8.326;2023-11-21T05:38:00;2.03;;;1.40;;
5483;SDS011;2764;48.794;8.326;2023-11-21T05:39:02;1.27;;;1.10;;
5483;SDS011;2764;48.794;8.326;2023-11-21T05:40:07;5.03;;;1.60;;
5483;SDS011;2764;48.794;8.326;2023-11-21T05:41:10;3.05;;;1.52;;
5483;SDS011;2764;48.794;8.326;2023-11-21T05:42:15;1.70;;;1.45;;
5483;SDS011;2764;48.794;8.326;2023-11-21T05:43:18;3.60;;;1.70;;
5483;SDS011;2764;48.794;8.326;2023-11-21T05:44:21;1.98;;;1.60;;
5483;SDS011;2764;48.794;8.326;2023-11-21T05:45:24;1.98;;;0.98;;
5483;SDS011;2764;48.794;8.326;2023-11-21T05:46:25;3.17;;;1.30;;
5483;SDS011;2764;48.794;8.326;2023-11-21T05:47:29;1.58;;;1.20;;
5483;SDS011;2764;48.794;8.326;2023-11-21T05:48:32;1.58;;;1.00;;
5483;SDS011;2764;48.794;8.326;2023-11-21T05:49:34;1.50;;;1.30;;
5483;SDS011;2764;48.794;8.326;2023-11-21T05:50:36;1.85;;;1.55;;
5483;SDS011;2764;48.794;8.326;2023-11-21T05:51:39;1.67;;;1.20;;
5483;SDS011;2764;48.794;8.326;2023-11-21T05:52:42;2.10;;;1.65;;
5483;SDS011;2764;48.794;8.326;2023-11-21T05:53:45;2.08;;;1.80;;
5483;SDS011;2764;48.794;8.326;2023-11-21T05:54:48;3.25;;;2.75;;
5483;SDS011;2764;48.794;8.326;2023-11-21T05:55:50;2.45;;;2.35;;
5483;SDS011;2764;48.794;8.326;2023-11-21T05:56:52;5.35;;;2.05;;
5483;SDS011;2764;48.794;8.326;2023-11-21T05:57:54;3.63;;;2.88;;
5483;SDS011;2764;48.794;8.326;2023-11-21T05:58:56;3.00;;;2.30;;
5483;SDS011;2764;48.794;8.326;2023-11-21T05:59:58;2.17;;;2.00;;
5483;SDS011;2764;48.794;8.326;2023-11-21T06:01:01;2.80;;;2.40;;
5483;SDS011;2764;48.794;8.326;2023-11-21T06:02:07;2.70;;;2.50;;
5483;SDS011;2764;48.794;8.326;2023-11-21T06:03:10;2.35;;;2.15;;
5483;SDS011;2764;48.794;8.326;2023-11-21T06:04:15;4.15;;;2.45;;
5483;SDS011;2764;48.794;8.326;2023-11-21T06:05:17;6.28;;;2.20;;
5483;SDS011;2764;48.794;8.326;2023-11-21T06:06:20;2.40;;;2.25;;
5483;SDS011;2764;48.794;8.326;2023-11-21T06:07:26;2.97;;;1.95;;
5483;SDS011;2764;48.794;8.326;2023-11-21T06:08:28;2.63;;;2.00;;
5483;SDS011;2764;48.794;8.326;2023-11-21T06:09:31;2.10;;;2.00;;
5483;SDS011;2764;48.794;8.326;2023-11-21T06:10:33;3.85;;;2.55;;
5483;SDS011;2764;48.794;8.326;2023-11-21T06:11:36;2.88;;;2.63;;
5483;SDS011;2764;48.794;8.326;2023-11-21T06:12:38;3.50;;;1.90;;
5483;SDS011;2764;48.794;8.326;2023-11-21T06:13:41;1.63;;;1.52;;
5483;SDS011;2764;48.794;8.326;2023-11-21T06:14:44;6.25;;;1.42;;
5483;SDS011;2764;48.794;8.326;2023-11-21T06:15:47;1.88;;;1.60;;
5483;SDS011;2764;48.794;8.326;2023-11-21T06:16:51;2.45;;;1.50;;
5483;SDS011;2764;48.794;8.326;2023-11-21T06:17:56;2.35;;;1.88;;
5483;SDS011;2764;48.794;8.326;2023-11-21T06:18:59;1.85;;;1.73;;
5483;SDS011;2764;48.794;8.326;2023-11-21T06:20:01;2.42;;;2.10;;
5483;SDS011;2764;48.794;8.326;2023-11-21T06:21:12;2.30;;;2.20;;
5483;SDS011;2764;48.794;8.326;2023-11-21T06:22:18;2.80;;;2.60;;
5483;SDS011;2764;48.794;8.326;2023-11-21T06:23:25;2.42;;;2.22;;
5483;SDS011;2764;48.794;8.326;2023-11-21T06:24:30;2.00;;;1.90;;
5483;SDS011;2764;48.794;8.326;2023-11-21T06:25:33;2.40;;;2.20;;
5483;SDS011;2764;48.794;8.326;2023-11-21T06:26:37;3.10;;;2.90;;
5483;SDS011;2764;48.794;8.326;2023-11-21T06:27:43;2.95;;;2.75;;
5483;SDS011;2764;48.794;8.326;2023-11-21T06:28:47;2.60;;;2.40;;
5483;SDS011;2764;48.794;8.326;2023-11-21T06:29:57;3.95;;;3.65;;
5483;SDS011;2764;48.794;8.326;2023-11-21T06:30:59;3.53;;;3.03;;
5483;SDS011;2764;48.794;8.326;2023-11-21T06:32:06;4.07;;;3.78;;
5483;SDS011;2764;48.794;8.326;2023-11-21T06:33:08;3.70;;;3.47;;
5483;SDS011;2764;48.794;8.326;2023-11-21T06:34:11;4.22;;;3.90;;